createdAt,value
2022-12-26T00:02:32.920Z,7.22
2022-12-26T00:07:34.664Z,6.20
2022-12-26T00:12:36.271Z,6.22
2022-12-26T00:17:37.947Z,5.63
2022-12-26T00:22:39.523Z,5.70
2022-12-26T00:27:41.097Z,7.97
2022-12-26T00:32:43.409Z,5.40
2022-12-26T00:37:45.011Z,5.30
2022-12-26T00:42:46.740Z,5.47
2022-12-26T00:47:48.328Z,5.28
2022-12-26T00:52:49.979Z,6.30
2022-12-26T00:57:51.620Z,6.50
2022-12-26T01:02:53.295Z,6.07
2022-12-26T01:08:23.020Z,7.40
2022-12-26T01:13:16.972Z,7.13
2022-12-26T01:18:18.997Z,6.57
2022-12-26T01:23:20.589Z,6.63
2022-12-26T01:28:22.270Z,8.07
2022-12-26T01:33:23.874Z,5.97
2022-12-26T01:38:25.654Z,6.65
2022-12-26T01:43:27.215Z,8.68
2022-12-26T01:48:33.735Z,7.82
2022-12-26T01:53:42.782Z,8.02
2022-12-26T01:58:50.987Z,6.85
2022-12-26T02:04:11.537Z,7.07
2022-12-26T02:09:13.402Z,7.47
2022-12-26T02:14:15.252Z,7.85
2022-12-26T02:19:35.588Z,7.00
2022-12-26T02:24:46.203Z,7.22
2022-12-26T02:30:27.934Z,7.00
2022-12-26T02:36:14.178Z,7.03
2022-12-26T02:41:31.548Z,6.53
2022-12-26T02:47:00.037Z,7.80
2022-12-26T02:52:29.912Z,7.00
2022-12-26T02:57:55.253Z,8.13
2022-12-26T03:03:26.588Z,7.95
2022-12-26T03:08:49.464Z,6.95
2022-12-26T03:13:51.431Z,6.32
2022-12-26T03:18:57.934Z,7.45
2022-12-26T03:24:02.057Z,6.68
2022-12-26T03:29:22.597Z,6.97
2022-12-26T03:34:24.500Z,5.88
2022-12-26T03:39:58.801Z,6.07
2022-12-26T03:45:24.839Z,6.00
2022-12-26T03:50:54.538Z,6.32
2022-12-26T03:56:20.291Z,5.97
2022-12-26T04:01:42.563Z,5.97
2022-12-26T04:07:16.530Z,6.75
2022-12-26T04:12:40.457Z,5.63
2022-12-26T04:18:06.756Z,6.35
2022-12-26T04:23:50.263Z,6.90
2022-12-26T04:29:10.273Z,6.18
2022-12-26T04:34:39.119Z,7.53
2022-12-26T04:40:02.198Z,5.90
2022-12-26T04:45:05.611Z,6.80
2022-12-26T04:50:13.395Z,1.92
2022-12-26T04:55:15.236Z,3.05
2022-12-26T05:00:17.297Z,1.80
2022-12-26T05:05:37.496Z,2.28
2022-12-26T05:10:39.896Z,3.40
2022-12-26T05:16:00.169Z,2.47
2022-12-26T05:21:21.245Z,3.90
2022-12-26T05:26:42.360Z,3.53
2022-12-26T05:31:44.178Z,1.92
2022-12-26T05:36:51.551Z,2.13
2022-12-26T05:41:53.278Z,2.00
2022-12-26T05:46:54.969Z,2.40
2022-12-26T05:51:56.612Z,3.53
2022-12-26T05:56:58.259Z,2.33
2022-12-26T06:02:00.044Z,2.85
2022-12-26T06:07:02.177Z,2.88
2022-12-26T06:12:03.742Z,2.53
2022-12-26T06:17:05.343Z,3.88
2022-12-26T06:22:06.917Z,2.58
2022-12-26T06:27:08.629Z,2.22
2022-12-26T06:32:10.195Z,1.88
2022-12-26T06:37:11.849Z,3.30
2022-12-26T06:42:13.409Z,2.95
2022-12-26T06:47:14.999Z,3.78
2022-12-26T06:52:16.830Z,3.55
2022-12-26T06:57:18.412Z,2.97
2022-12-26T07:02:20.036Z,2.97
2022-12-26T07:07:21.664Z,2.70
2022-12-26T07:12:23.316Z,2.17
2022-12-26T07:17:24.895Z,2.40
2022-12-26T07:22:26.492Z,2.28
2022-12-26T07:27:28.103Z,2.83
2022-12-26T07:32:29.675Z,2.92
2022-12-26T07:37:31.259Z,2.28
2022-12-26T07:42:32.855Z,2.95
2022-12-26T07:47:34.489Z,2.95
2022-12-26T07:52:36.039Z,1.83
2022-12-26T07:57:52.768Z,3.30
2022-12-26T08:02:54.501Z,1.92
2022-12-26T08:07:56.367Z,2.10
2022-12-26T08:12:57.945Z,2.58
2022-12-26T08:17:59.652Z,2.03
2022-12-26T08:23:02.372Z,1.92
2022-12-26T08:28:04.066Z,2.80
2022-12-26T08:33:05.737Z,3.08
2022-12-26T08:38:07.495Z,1.83
2022-12-26T08:43:30.317Z,3.38
2022-12-26T08:48:31.200Z,1.73
2022-12-26T08:53:35.629Z,4.03
2022-12-26T08:58:37.709Z,1.70
2022-12-26T09:03:40.133Z,3.08
2022-12-26T09:08:42.500Z,3.30
2022-12-26T09:13:44.930Z,2.92
2022-12-26T09:18:47.848Z,2.53
2022-12-26T09:23:51.158Z,3.28
2022-12-26T09:28:53.384Z,2.80
2022-12-26T09:33:55.256Z,1.90
2022-12-26T09:38:58.734Z,3.13
2022-12-26T09:44:10.108Z,2.90
2022-12-26T09:49:23.472Z,3.63
2022-12-26T09:54:54.770Z,1.90
2022-12-26T09:59:58.591Z,2.67
2022-12-26T10:05:00.552Z,3.45
2022-12-26T10:10:15.075Z,3.65
2022-12-26T10:15:55.187Z,2.42
2022-12-26T10:21:21.906Z,2.65
2022-12-26T10:26:27.400Z,3.10
2022-12-26T10:31:56.333Z,1.80
2022-12-26T10:37:21.080Z,4.30
2022-12-26T10:42:33.844Z,2.83
2022-12-26T10:47:39.325Z,3.40
2022-12-26T10:52:41.457Z,2.35
2022-12-26T10:57:44.965Z,2.00
2022-12-26T11:03:02.619Z,1.95
2022-12-26T11:08:09.525Z,2.33
2022-12-26T11:13:19.042Z,3.25
2022-12-26T11:18:39.361Z,3.78
2022-12-26T11:23:41.018Z,2.17
2022-12-26T11:28:43.030Z,2.50
2022-12-26T11:33:46.231Z,3.30
2022-12-26T11:38:47.748Z,2.38
2022-12-26T11:43:51.301Z,3.03
2022-12-26T11:48:52.969Z,2.88
2022-12-26T11:54:22.406Z,3.22
2022-12-26T11:59:24.028Z,5.43
2022-12-26T12:04:25.599Z,1.55
2022-12-26T12:09:27.122Z,1.85
2022-12-26T12:14:39.413Z,1.75
2022-12-26T12:19:47.407Z,3.85
2022-12-26T12:25:07.487Z,2.08
2022-12-26T12:30:20.028Z,2.38
2022-12-26T12:35:30.298Z,1.75
2022-12-26T12:40:31.807Z,1.58
2022-12-26T12:46:05.832Z,1.60
2022-12-26T12:51:17.572Z,2.28
2022-12-26T12:56:24.930Z,2.30
2022-12-26T13:01:33.630Z,1.80
2022-12-26T13:06:40.610Z,5.38
2022-12-26T13:11:53.322Z,4.35
2022-12-26T13:17:19.419Z,1.95
2022-12-26T13:22:51.540Z,2.97
2022-12-26T13:27:54.872Z,1.25
2022-12-26T13:32:56.892Z,0.93
2022-12-26T13:37:58.677Z,1.48
2022-12-26T13:43:42.373Z,1.33
2022-12-26T13:48:43.876Z,1.10
2022-12-26T13:53:58.601Z,1.13
2022-12-26T13:59:36.859Z,1.40
2022-12-26T14:05:12.413Z,1.20
2022-12-26T14:10:22.824Z,1.40
2022-12-26T14:16:16.263Z,3.05
2022-12-26T14:21:36.398Z,3.25
2022-12-26T14:26:44.122Z,2.17
2022-12-26T14:32:33.873Z,1.40
2022-12-26T14:37:49.744Z,1.65
2022-12-26T14:43:12.793Z,3.20
2022-12-26T14:48:17.147Z,2.70
2022-12-26T14:53:24.616Z,1.55
2022-12-26T14:58:32.085Z,2.47
2022-12-26T15:03:49.005Z,2.30
2022-12-26T15:09:02.529Z,1.88
2022-12-26T15:14:22.250Z,1.60
2022-12-26T15:20:02.539Z,1.50
2022-12-26T15:25:36.431Z,1.67
2022-12-26T15:30:50.296Z,1.77
2022-12-26T15:36:25.859Z,2.22
2022-12-26T15:41:40.662Z,1.58
2022-12-26T15:46:44.426Z,1.70
2022-12-26T15:52:03.371Z,1.85
2022-12-26T15:57:13.811Z,1.30
2022-12-26T16:02:33.353Z,1.40
2022-12-26T16:08:08.403Z,1.80
2022-12-26T16:13:12.674Z,1.35
2022-12-26T16:18:15.465Z,1.40
2022-12-26T16:23:20.143Z,1.65
2022-12-26T16:28:38.307Z,2.30
2022-12-26T16:33:41.485Z,1.85
2022-12-26T16:38:44.068Z,1.50
2022-12-26T16:43:45.681Z,2.22
2022-12-26T16:48:53.551Z,1.90
2022-12-26T16:53:55.110Z,2.30
2022-12-26T16:59:05.387Z,2.88
2022-12-26T17:04:21.110Z,2.67
2022-12-26T17:09:24.803Z,3.05
2022-12-26T17:14:35.763Z,2.10
2022-12-26T17:19:37.645Z,2.20
2022-12-26T17:24:39.259Z,1.92
2022-12-26T17:29:49.959Z,2.70
2022-12-26T17:34:51.567Z,3.13
2022-12-26T17:40:00.908Z,2.20
2022-12-26T17:45:04.829Z,2.45
2022-12-26T17:50:06.459Z,2.38
2022-12-26T17:55:15.059Z,1.77
2022-12-26T18:00:22.004Z,1.80
2022-12-26T18:05:23.666Z,2.10
2022-12-26T18:10:28.932Z,2.40
2022-12-26T18:15:31.419Z,1.65
2022-12-26T18:20:33.057Z,1.35
2022-12-26T18:25:34.657Z,1.58
2022-12-26T18:30:36.302Z,1.40
2022-12-26T18:35:39.634Z,2.38
2022-12-26T18:40:44.013Z,1.98
2022-12-26T18:45:45.623Z,1.50
2022-12-26T18:50:49.056Z,1.27
2022-12-26T18:55:50.656Z,1.23
2022-12-26T19:00:52.273Z,1.35
2022-12-26T19:05:53.898Z,1.23
2022-12-26T19:10:55.461Z,2.25
2022-12-26T19:15:57.146Z,2.03
2022-12-26T19:20:58.842Z,1.10
2022-12-26T19:26:00.428Z,1.98
2022-12-26T19:31:28.064Z,2.80
2022-12-26T19:36:29.688Z,0.90
2022-12-26T19:41:31.471Z,1.30
2022-12-26T19:46:33.075Z,1.38
2022-12-26T19:51:34.727Z,1.20
2022-12-26T19:56:36.312Z,1.38
2022-12-26T20:01:38.014Z,1.23
2022-12-26T20:06:39.916Z,0.68
2022-12-26T20:11:44.460Z,0.77
2022-12-26T20:17:08.567Z,1.23
2022-12-26T20:22:11.649Z,0.82
2022-12-26T20:27:13.855Z,0.70
2022-12-26T20:32:15.414Z,2.15
2022-12-26T20:37:18.057Z,0.95
2022-12-26T20:42:19.674Z,3.42
2022-12-26T20:47:21.323Z,1.00
2022-12-26T20:52:22.935Z,2.55
2022-12-26T20:57:24.520Z,0.90
2022-12-26T21:02:26.256Z,3.17
2022-12-26T21:07:28.099Z,0.90
2022-12-26T21:12:29.677Z,3.15
2022-12-26T21:17:31.240Z,1.83
2022-12-26T21:22:32.899Z,3.53
2022-12-26T21:27:34.971Z,1.50
2022-12-26T21:32:36.538Z,1.85
2022-12-26T21:37:53.508Z,3.40
2022-12-26T21:42:55.126Z,1.58
2022-12-26T21:47:56.744Z,2.75
2022-12-26T21:52:58.400Z,3.10
2022-12-26T21:58:00.648Z,3.50
2022-12-26T22:03:21.618Z,2.50
2022-12-26T22:08:23.313Z,3.25
2022-12-26T22:13:26.012Z,2.72
2022-12-26T22:18:27.618Z,5.47
2022-12-26T22:23:29.222Z,3.25
2022-12-26T22:28:31.484Z,2.67
2022-12-26T22:33:33.330Z,2.05
2022-12-26T22:38:36.101Z,3.88
2022-12-26T22:43:37.774Z,3.45
2022-12-26T22:48:39.473Z,2.25
2022-12-26T22:53:42.331Z,3.30
2022-12-26T22:58:43.977Z,2.47
2022-12-26T23:03:46.121Z,4.35
2022-12-26T23:08:49.425Z,3.05
2022-12-26T23:13:51.342Z,3.20
2022-12-26T23:19:14.088Z,3.83
2022-12-26T23:24:20.074Z,5.07
2022-12-26T23:29:42.028Z,3.47
2022-12-26T23:34:43.609Z,3.22
2022-12-26T23:39:45.255Z,4.07
2022-12-26T23:44:46.925Z,4.22
2022-12-26T23:49:48.568Z,3.30
2022-12-26T23:54:50.127Z,2.85
2022-12-26T23:59:51.699Z,4.50
